Time;durP1;ratioP1;P1;durP2;ratioP2;P2;SDS_P1;SDS_P2;PMS_P1;PMS_P2;Temp;Humidity;BMP_temperature;BMP_pressure;BME280_temperature;BME280_humidity;BME280_pressure;Samples;Min_cycle;Max_cycle;Signal;HPM_P1;HPM_P2
2023/03/16 00:01:07;;;;;;;5.28;3.30;;;2.50;99.90;;;;;;5158681;27;20085;-78
2023/03/16 00:03:33;;;;;;;9.90;3.03;;;2.50;99.90;;;;;;5158680;27;20126;-78
2023/03/16 00:05:59;;;;;;;9.18;3.30;;;2.50;99.90;;;;;;5158679;27;20043;-78
2023/03/16 00:08:24;;;;;;;12.45;3.15;;;2.50;99.90;;;;;;5158631;27;20049;-78
2023/03/16 00:10:52;;;;;;;9.77;3.17;;;2.60;99.90;;;;;;5140321;27;20054;-79
2023/03/16 00:13:22;;;;;;;7.68;3.10;;;2.60;99.90;;;;;;5158541;27;20081;-78
2023/03/16 00:15:58;;;;;;;8.27;3.60;;;2.60;99.90;;;;;;5158391;27;20050;-79
2023/03/16 00:18:26;;;;;;;8.25;4.05;;;2.60;99.90;;;;;;5157606;27;20039;-77
2023/03/16 00:21:01;;;;;;;8.10;3.60;;;2.60;99.90;;;;;;5139871;27;20402;-77
2023/03/16 00:23:27;;;;;;;8.90;4.43;;;2.60;99.90;;;;;;5158382;27;20039;-77
2023/03/16 00:25:57;;;;;;;9.67;4.53;;;3.90;99.90;;;;;;5158266;27;20043;-77
2023/03/16 00:28:23;;;;;;;8.30;4.88;;;2.70;99.90;;;;;;5158229;27;20038;-78
2023/03/16 00:30:49;;;;;;;7.35;4.40;;;2.70;99.90;;;;;;5158094;27;20035;-78
2023/03/16 00:33:15;;;;;;;9.52;4.57;;;2.70;99.90;;;;;;5158124;27;20045;-78
2023/03/16 00:35:48;;;;;;;8.68;4.43;;;2.70;99.90;;;;;;5158156;27;20042;-79
2023/03/16 00:38:18;;;;;;;7.47;4.32;;;2.80;99.90;;;;;;5158080;27;20394;-78
2023/03/16 00:40:44;;;;;;;6.65;3.63;;;2.70;99.90;;;;;;5157754;27;20059;-78
2023/03/16 00:43:09;;;;;;;8.77;4.40;;;2.70;99.90;;;;;;5139634;27;20046;-78
2023/03/16 00:45:35;;;;;;;8.27;3.78;;;2.80;99.90;;;;;;5157859;27;20042;-79
2023/03/16 00:48:01;;;;;;;7.03;3.78;;;2.70;99.90;;;;;;5139621;27;20086;-78
2023/03/16 00:50:27;;;;;;;9.07;3.88;;;2.70;99.90;;;;;;5157448;27;20119;-78
2023/03/16 00:52:53;;;;;;;6.53;3.70;;;2.70;99.90;;;;;;5157704;27;20058;-77
2023/03/16 00:55:21;;;;;;;9.55;3.70;;;2.70;99.90;;;;;;5157663;27;20398;-78
2023/03/16 00:57:47;;;;;;;7.65;3.28;;;2.70;99.90;;;;;;5157294;27;20539;-77
2023/03/16 01:00:15;;;;;;;9.60;3.60;;;2.70;99.90;;;;;;5157565;27;20085;-78
2023/03/16 01:02:44;;;;;;;6.82;3.35;;;2.70;99.90;;;;;;5157541;27;20047;-78
2023/03/16 01:05:11;;;;;;;10.13;3.15;;;2.70;99.90;;;;;;5157538;27;20458;-79
2023/03/16 01:07:38;;;;;;;9.70;3.22;;;2.80;99.90;;;;;;5157083;27;20046;-77
2023/03/16 01:10:04;;;;;;;7.93;3.30;;;2.80;99.90;;;;;;5156925;27;20478;-77
2023/03/16 01:12:29;;;;;;;9.57;3.55;;;2.80;99.90;;;;;;5157687;27;20394;-78
2023/03/16 01:14:55;;;;;;;7.22;3.17;;;2.80;99.90;;;;;;5157282;27;20037;-78
2023/03/16 01:17:24;;;;;;;12.32;3.92;;;2.80;99.90;;;;;;5157507;27;20121;-77
2023/03/16 01:19:50;;;;;;;9.15;3.20;;;2.80;99.90;;;;;;5157197;27;20117;-77
2023/03/16 01:22:16;;;;;;;6.80;3.13;;;2.80;99.90;;;;;;5157230;27;20047;-79
2023/03/16 01:24:44;;;;;;;7.10;3.08;;;2.80;99.90;;;;;;5121736;27;20053;-78
2023/03/16 01:27:10;;;;;;;10.10;3.45;;;2.80;99.90;;;;;;5157031;27;20046;-78
2023/03/16 01:29:36;;;;;;;6.05;3.00;;;2.80;99.90;;;;;;5138731;27;20468;-78
2023/03/16 01:32:03;;;;;;;6.32;2.90;;;2.80;99.90;;;;;;5138780;27;20126;-78
2023/03/16 01:34:28;;;;;;;8.63;2.77;;;2.80;99.90;;;;;;5156865;27;20125;-78
2023/03/16 01:36:54;;;;;;;6.70;3.20;;;2.80;99.90;;;;;;5156772;27;20085;-77
2023/03/16 01:39:20;;;;;;;6.18;3.20;;;2.80;99.90;;;;;;5156792;27;20079;-78
2023/03/16 01:41:47;;;;;;;4.32;3.08;;;2.80;99.90;;;;;;5156744;27;20091;-78
2023/03/16 01:44:29;;;;;;;5.30;2.83;;;2.80;99.90;;;;;;5156784;27;20035;-78
2023/03/16 01:46:54;;;;;;;4.78;2.70;;;2.80;99.90;;;;;;5156951;27;20038;-79
2023/03/16 01:49:27;;;;;;;6.75;3.00;;;2.80;99.90;;;;;;5156504;27;20039;-78
2023/03/16 01:52:01;;;;;;;6.10;3.17;;;2.80;99.90;;;;;;5157135;27;20059;-78
2023/03/16 01:54:34;;;;;;;4.85;2.92;;;3.60;99.90;;;;;;5156505;27;20089;-77
2023/03/16 01:57:12;;;;;;;6.65;2.78;;;2.80;99.90;;;;;;5156509;27;20043;-78
2023/03/16 01:59:41;;;;;;;;;;;2.80;99.90;;;;;;5156937;27;20370;-77
2023/03/16 02:02:09;;;;;;;7.63;3.17;;;3.20;99.90;;;;;;5156363;27;20006;-79
2023/03/16 02:04:41;;;;;;;4.72;2.85;;;2.80;99.90;;;;;;5156806;27;20367;-78
2023/03/16 02:07:08;;;;;;;5.38;2.88;;;2.70;99.90;;;;;;5156397;27;20078;-79
2023/03/16 02:09:37;;;;;;;7.43;2.83;;;2.70;99.90;;;;;;5156542;27;20039;-77
2023/03/16 02:12:04;;;;;;;5.30;3.05;;;2.70;99.90;;;;;;5156205;27;20039;-78
2023/03/16 02:14:30;;;;;;;5.80;2.97;;;2.70;99.90;;;;;;5156114;27;20085;-80
2023/03/16 02:16:56;;;;;;;6.40;3.60;;;2.70;99.90;;;;;;5155732;27;20046;-78
2023/03/16 02:19:36;;;;;;;6.75;2.83;;;2.60;99.90;;;;;;5156029;27;20041;-77
2023/03/16 02:22:06;;;;;;;7.40;3.20;;;2.60;99.90;;;;;;5156028;27;20055;-78
2023/03/16 02:24:32;;;;;;;5.78;3.20;;;2.60;99.90;;;;;;5155629;27;20498;-79
2023/03/16 02:27:03;;;;;;;7.75;3.53;;;2.60;99.90;;;;;;5155919;27;20049;-79
2023/03/16 02:29:55;;;;;;;5.82;3.50;;;2.60;99.90;;;;;;5155757;27;20031;-77
2023/03/16 02:32:23;;;;;;;8.85;3.38;;;2.60;99.90;;;;;;5155844;27;20122;-77
2023/03/16 02:34:49;;;;;;;10.27;3.28;;;2.60;99.90;;;;;;5155807;27;20046;-79
2023/03/16 02:37:14;;;;;;;7.53;3.40;;;2.60;99.90;;;;;;5156199;27;20078;-78
2023/03/16 02:39:42;;;;;;;6.93;3.17;;;2.60;99.90;;;;;;5137295;27;20499;-78
2023/03/16 02:42:14;;;;;;;9.05;3.35;;;2.60;99.90;;;;;;5155822;27;20409;-77
2023/03/16 02:44:42;;;;;;;5.40;2.78;;;2.60;99.90;;;;;;5155672;27;20043;-79
2023/03/16 02:47:20;;;;;;;7.25;3.17;;;2.70;99.90;;;;;;5155869;27;20042;-77
2023/03/16 02:49:46;;;;;;;6.75;3.42;;;2.70;99.90;;;;;;5155245;27;20042;-77
2023/03/16 02:52:12;;;;;;;9.50;3.55;;;2.70;99.90;;;;;;5155603;27;20049;-78
2023/03/16 02:54:38;;;;;;;5.95;3.22;;;2.70;99.90;;;;;;5155264;27;20035;-80
2023/03/16 02:57:03;;;;;;;5.95;3.75;;;2.70;99.90;;;;;;5155497;27;20089;-78
2023/03/16 02:59:30;;;;;;;7.03;3.50;;;2.70;99.90;;;;;;5137112;27;20041;-78
2023/03/16 03:01:55;;;;;;;5.90;3.40;;;2.70;99.90;;;;;;5155690;27;20081;-77
2023/03/16 03:04:22;;;;;;;4.82;3.40;;;2.70;99.90;;;;;;5155417;27;20454;-78
2023/03/16 03:06:48;;;;;;;9.65;3.50;;;2.80;99.90;;;;;;5155398;27;20089;-78
2023/03/16 03:09:14;;;;;;;5.03;3.00;;;2.80;99.90;;;;;;5154926;27;20375;-77
2023/03/16 03:11:39;;;;;;;6.95;3.50;;;2.80;99.90;;;;;;5155354;27;20095;-80
2023/03/16 03:14:06;;;;;;;4.97;3.03;;;2.80;99.90;;;;;;5155337;27;20424;-76
2023/03/16 03:16:31;;;;;;;8.80;3.53;;;2.90;99.90;;;;;;5155275;27;20398;-80
2023/03/16 03:18:57;;;;;;;6.57;3.47;;;2.90;99.90;;;;;;5155329;27;20042;-79
2023/03/16 03:21:23;;;;;;;8.25;3.38;;;2.90;99.90;;;;;;5155242;27;20373;-79
2023/03/16 03:23:49;;;;;;;7.03;3.70;;;2.90;99.90;;;;;;5136762;27;20038;-79
2023/03/16 03:26:16;;;;;;;4.88;3.55;;;3.00;99.90;;;;;;5155298;27;20039;-78
2023/03/16 03:28:43;;;;;;;6.38;3.10;;;3.00;99.90;;;;;;5155161;27;20059;-79
2023/03/16 03:31:17;;;;;;;6.32;3.55;;;3.00;99.90;;;;;;5155350;27;20039;-78
2023/03/16 03:33:43;;;;;;;7.65;3.20;;;3.00;99.90;;;;;;5155141;27;20046;-78
2023/03/16 03:36:10;;;;;;;6.30;3.28;;;3.00;99.90;;;;;;5155114;27;20046;-77
2023/03/16 03:38:36;;;;;;;5.10;3.63;;;3.10;99.90;;;;;;5155491;27;20095;-79
2023/03/16 03:41:01;;;;;;;6.20;3.50;;;3.10;99.90;;;;;;5155104;27;20046;-78
2023/03/16 03:43:27;;;;;;;5.15;3.30;;;3.10;99.90;;;;;;5155076;27;20137;-78
2023/03/16 03:45:57;;;;;;;7.22;3.40;;;3.10;99.90;;;;;;5136816;27;20039;-78
2023/03/16 03:48:23;;;;;;;3.83;3.00;;;3.10;99.90;;;;;;5154795;27;20393;-79
2023/03/16 03:50:49;;;;;;;7.03;3.60;;;3.10;99.90;;;;;;5155021;27;20486;-79
2023/03/16 03:53:15;;;;;;;5.20;3.03;;;3.30;99.90;;;;;;5157497;27;20058;-77
2023/03/16 03:55:40;;;;;;;9.60;3.70;;;3.20;99.90;;;;;;5159464;27;20042;-78
2023/03/16 03:58:06;;;;;;;6.53;3.60;;;3.20;99.90;;;;;;5158888;27;20541;-76
2023/03/16 04:00:31;;;;;;;5.15;3.03;;;3.20;99.90;;;;;;5158745;27;20081;-78
2023/03/16 04:02:57;;;;;;;7.28;3.90;;;3.20;99.90;;;;;;5140485;27;20130;-79
2023/03/16 04:05:26;;;;;;;5.05;3.00;;;3.20;99.90;;;;;;5158624;27;20050;-77
2023/03/16 04:07:56;;;;;;;6.50;3.50;;;3.30;99.90;;;;;;5158586;27;20085;-77
2023/03/16 04:10:25;;;;;;;5.15;3.47;;;3.30;99.90;;;;;;5158855;27;20038;-77
2023/03/16 04:12:51;;;;;;;5.57;3.67;;;3.30;99.90;;;;;;5158350;27;20508;-79
2023/03/16 04:15:16;;;;;;;7.32;4.00;;;3.30;99.90;;;;;;5140273;27;20038;-77
2023/03/16 04:17:42;;;;;;;6.38;3.55;;;3.30;99.90;;;;;;5158437;27;20035;-77
2023/03/16 04:20:13;;;;;;;5.05;3.00;;;3.30;99.90;;;;;;5158345;27;20079;-78
2023/03/16 04:22:41;;;;;;;8.07;3.58;;;3.30;99.90;;;;;;5158467;27;20057;-77
2023/03/16 04:25:09;;;;;;;6.65;3.47;;;3.30;99.90;;;;;;5158419;27;20042;-78
2023/03/16 04:27:35;;;;;;;;;;;3.30;99.90;;;;;;5158691;27;20063;-78
2023/03/16 04:30:06;;;;;;;7.68;3.28;;;3.30;99.90;;;;;;5158121;27;19926;-77
2023/03/16 04:32:33;;;;;;;5.50;3.42;;;3.30;99.90;;;;;;5158057;27;20043;-78
2023/03/16 04:34:58;;;;;;;8.75;3.60;;;3.30;99.90;;;;;;5158124;27;20054;-78
2023/03/16 04:37:24;;;;;;;7.13;3.33;;;3.30;99.90;;;;;;5158041;27;20039;-77
2023/03/16 04:39:50;;;;;;;4.70;3.33;;;3.30;99.90;;;;;;5157990;27;20042;-78
2023/03/16 04:42:15;;;;;;;6.35;3.30;;;3.30;99.90;;;;;;5158659;27;20411;-78
2023/03/16 04:44:43;;;;;;;4.60;3.38;;;3.30;99.90;;;;;;5157932;27;20548;-78
2023/03/16 04:47:12;;;;;;;8.23;3.60;;;3.30;99.90;;;;;;5157824;27;20402;-79
2023/03/16 04:49:38;;;;;;;7.78;3.72;;;3.30;99.90;;;;;;5157538;27;20038;-78
2023/03/16 04:52:04;;;;;;;7.90;3.92;;;3.30;99.90;;;;;;5157918;27;20054;-78
2023/03/16 04:54:31;;;;;;;6.65;3.00;;;3.30;99.90;;;;;;5158315;27;20197;-77
2023/03/16 04:56:56;;;;;;;7.82;3.97;;;3.30;99.90;;;;;;5157462;27;20120;-79
2023/03/16 04:59:22;;;;;;;6.28;3.53;;;3.30;99.90;;;;;;5157604;27;20042;-78
2023/03/16 05:01:48;;;;;;;7.70;3.88;;;3.30;99.90;;;;;;5157605;27;20363;-78
2023/03/16 05:04:14;;;;;;;5.97;3.80;;;3.30;99.90;;;;;;5156966;27;20043;-77
2023/03/16 05:06:40;;;;;;;7.38;3.85;;;3.30;99.90;;;;;;5157537;27;20280;-79
2023/03/16 05:09:07;;;;;;;5.82;3.80;;;3.30;99.90;;;;;;5157356;27;20474;-78
2023/03/16 05:11:34;;;;;;;6.93;4.35;;;3.20;99.90;;;;;;5157332;27;20050;-77
2023/03/16 05:14:00;;;;;;;;;;;3.20;99.90;;;;;;5157832;27;20086;-79
2023/03/16 05:16:30;;;;;;;9.07;4.05;;;3.20;99.90;;;;;;5157261;27;20321;-79
2023/03/16 05:19:00;;;;;;;8.63;3.80;;;3.20;99.90;;;;;;5157281;27;20043;-78
2023/03/16 05:21:26;;;;;;;5.43;3.95;;;3.30;99.90;;;;;;5157152;27;20474;-78
2023/03/16 05:23:51;;;;;;;5.57;3.40;;;3.20;99.90;;;;;;5157160;27;20095;-77
2023/03/16 05:26:18;;;;;;;6.53;3.72;;;3.30;99.90;;;;;;5157247;27;20039;-77
2023/03/16 05:28:44;;;;;;;6.68;3.97;;;3.20;99.90;;;;;;5157148;27;20042;-78
2023/03/16 05:31:10;;;;;;;7.80;3.75;;;3.30;99.90;;;;;;5156885;27;20042;-77
2023/03/16 05:33:36;;;;;;;7.13;3.80;;;3.20;99.90;;;;;;5138555;27;20122;-78
2023/03/16 05:36:03;;;;;;;8.00;3.78;;;3.30;99.90;;;;;;5156857;27;20888;-78
2023/03/16 05:38:30;;;;;;;4.60;3.35;;;3.30;99.90;;;;;;5156951;27;20394;-78
2023/03/16 05:41:00;;;;;;;6.85;3.55;;;3.30;99.90;;;;;;5156754;27;20053;-79
2023/03/16 05:43:28;;;;;;;12.77;3.70;;;3.30;99.90;;;;;;5138475;27;20118;-78
2023/03/16 05:45:54;;;;;;;7.28;4.07;;;3.30;99.90;;;;;;5156500;27;20046;-79
2023/03/16 05:48:20;;;;;;;6.47;3.65;;;3.30;99.90;;;;;;5156883;27;20049;-78
2023/03/16 05:50:46;;;;;;;5.57;3.30;;;3.30;99.90;;;;;;5156116;27;20091;-78
2023/03/16 05:53:12;;;;;;;7.03;3.67;;;3.30;99.90;;;;;;5156165;27;20135;-77
2023/03/16 05:55:38;;;;;;;8.90;3.97;;;3.30;99.90;;;;;;5156312;27;20042;-78
2023/03/16 05:58:04;;;;;;;5.95;3.78;;;3.30;99.90;;;;;;5156464;27;20039;-77
2023/03/16 06:00:30;;;;;;;6.15;3.65;;;3.30;99.90;;;;;;5156420;27;20137;-77
2023/03/16 06:02:56;;;;;;;6.53;3.58;;;3.50;99.90;;;;;;5156355;27;20062;-76
2023/03/16 06:05:23;;;;;;;5.68;3.33;;;3.30;99.90;;;;;;5156274;27;20046;-78
2023/03/16 06:07:49;;;;;;;7.57;3.53;;;3.30;99.90;;;;;;5156306;27;20046;-77
2023/03/16 06:10:15;;;;;;;6.47;3.05;;;3.40;99.90;;;;;;5156202;27;20398;-76
2023/03/16 06:12:41;;;;;;;7.43;3.30;;;3.40;99.90;;;;;;5156193;27;20038;-77
2023/03/16 06:15:09;;;;;;;6.05;3.70;;;3.50;99.90;;;;;;5137519;27;20050;-76
2023/03/16 06:17:35;;;;;;;5.03;3.50;;;3.50;99.90;;;;;;5155573;27;20057;-78
2023/03/16 06:20:04;;;;;;;7.32;3.78;;;3.50;99.90;;;;;;5156017;27;20049;-80
2023/03/16 06:22:29;;;;;;;6.20;3.38;;;3.50;99.90;;;;;;5155862;27;20541;-80
2023/03/16 06:24:55;;;;;;;5.22;3.72;;;3.50;99.90;;;;;;5155892;27;20074;-82
2023/03/16 06:27:21;;;;;;;6.63;3.55;;;3.90;99.90;;;;;;5137437;27;20421;-78
2023/03/16 06:29:46;;;;;;;7.07;3.40;;;3.60;99.90;;;;;;5155839;27;20041;-81
2023/03/16 06:32:13;;;;;;;7.43;3.20;;;3.60;99.90;;;;;;5155811;27;20099;-80
2023/03/16 06:34:40;;;;;;;4.53;3.33;;;3.70;99.90;;;;;;5155800;27;20047;-79
2023/03/16 06:37:06;;;;;;;5.97;3.35;;;3.90;99.90;;;;;;5155823;27;20046;-80
2023/03/16 06:39:31;;;;;;;4.07;3.00;;;3.70;99.90;;;;;;5155631;27;20039;-81
2023/03/16 06:41:57;;;;;;;7.57;3.95;;;3.70;99.90;;;;;;5155709;27;20458;-80
2023/03/16 06:44:23;;;;;;;6.32;3.05;;;3.80;99.90;;;;;;5137352;27;20086;-82
2023/03/16 06:46:49;;;;;;;5.28;3.53;;;3.80;99.90;;;;;;5155599;27;20095;-79
2023/03/16 06:49:15;;;;;;;5.72;3.58;;;3.80;99.90;;;;;;5137449;27;20051;-81
2023/03/16 06:51:41;;;;;;;5.07;3.40;;;3.80;99.90;;;;;;5103153;27;20070;-79
2023/03/16 06:54:07;;;;;;;6.55;3.40;;;3.80;99.90;;;;;;5155567;27;20375;-79
2023/03/16 06:56:33;;;;;;;7.03;3.50;;;3.90;99.90;;;;;;5137292;27;20038;-81
2023/03/16 06:58:58;;;;;;;5.60;3.03;;;3.90;99.90;;;;;;5137290;27;20043;-81
2023/03/16 07:01:24;;;;;;;5.20;3.40;;;3.90;99.90;;;;;;5155140;27;20531;-79
2023/03/16 07:03:50;;;;;;;6.22;3.17;;;4.40;99.90;;;;;;5137006;27;20064;-77
2023/03/16 07:06:16;;;;;;;6.97;3.47;;;4.00;99.90;;;;;;5155717;27;20537;-78
2023/03/16 07:08:42;;;;;;;7.00;3.53;;;4.00;99.90;;;;;;5155355;27;20093;-77
2023/03/16 07:11:08;;;;;;;5.60;3.33;;;4.10;99.90;;;;;;5155246;27;20078;-77
2023/03/16 07:13:34;;;;;;;4.43;2.95;;;4.10;99.90;;;;;;5155292;27;20050;-78
2023/03/16 07:16:03;;;;;;;4.53;3.03;;;4.20;99.90;;;;;;5155307;27;20136;-76
2023/03/16 07:18:30;;;;;;;6.07;2.92;;;4.20;99.90;;;;;;5155284;27;20363;-77
2023/03/16 07:20:56;;;;;;;6.30;3.25;;;4.20;99.90;;;;;;5155247;27;20050;-77
2023/03/16 07:23:23;;;;;;;4.25;2.97;;;4.30;99.90;;;;;;5155151;27;20045;-77
2023/03/16 07:25:49;;;;;;;7.55;3.28;;;4.30;99.90;;;;;;5137098;27;20171;-80
2023/03/16 07:28:14;;;;;;;4.97;3.17;;;4.30;99.90;;;;;;5157819;27;20095;-78
2023/03/16 07:30:40;;;;;;;4.55;2.70;;;4.30;99.90;;;;;;5159255;27;20125;-79
2023/03/16 07:33:05;;;;;;;3.83;3.00;;;4.30;99.90;;;;;;5159327;27;20051;-78
2023/03/16 07:35:31;;;;;;;11.32;3.65;;;4.40;99.90;;;;;;5159479;27;20051;-79
2023/03/16 07:37:56;;;;;;;4.65;3.30;;;4.40;99.90;;;;;;5159272;27;20035;-77
2023/03/16 07:40:22;;;;;;;8.77;3.25;;;4.40;99.90;;;;;;5159164;27;20095;-78
2023/03/16 07:42:48;;;;;;;7.45;3.10;;;4.40;99.90;;;;;;5158952;27;20035;-81
2023/03/16 07:45:16;;;;;;;5.27;3.17;;;4.40;99.90;;;;;;5158818;27;20550;-78
2023/03/16 07:47:42;;;;;;;6.53;3.30;;;4.50;99.90;;;;;;5159043;27;20355;-78
2023/03/16 07:50:10;;;;;;;6.28;3.17;;;4.50;99.90;;;;;;5149798;27;20142;-78
2023/03/16 07:52:35;;;;;;;5.65;3.03;;;4.50;99.90;;;;;;5137756;27;20046;-78
2023/03/16 07:55:02;;;;;;;7.25;3.00;;;4.60;99.90;;;;;;5137803;27;20150;-78
2023/03/16 07:57:28;;;;;;;6.18;3.20;;;4.60;99.90;;;;;;5137425;27;20583;-80
2023/03/16 07:59:54;;;;;;;5.47;3.30;;;4.70;99.90;;;;;;5119519;27;20039;-79
2023/03/16 08:02:23;;;;;;;5.13;3.10;;;4.70;99.90;;;;;;5137777;27;20471;-78
2023/03/16 08:04:49;;;;;;;5.38;2.88;;;4.70;99.90;;;;;;5119829;27;20067;-79
2023/03/16 08:07:15;;;;;;;8.48;3.28;;;4.80;99.90;;;;;;5137142;27;20081;-80
2023/03/16 08:09:41;;;;;;;3.35;2.25;;;4.80;99.90;;;;;;5137371;27;20082;-80
2023/03/16 08:12:07;;;;;;;8.10;3.42;;;4.80;99.90;;;;;;5137504;27;20043;-79
2023/03/16 08:14:33;;;;;;;5.50;3.20;;;4.90;99.90;;;;;;5137207;27;20772;-80
2023/03/16 08:17:06;;;;;;;7.65;3.53;;;5.00;99.90;;;;;;5119057;27;20126;-78
2023/03/16 08:19:32;;;;;;;11.00;3.85;;;6.00;99.90;;;;;;5137637;27;20043;-77
2023/03/16 08:22:00;;;;;;;4.10;3.10;;;5.10;99.90;;;;;;5137299;27;20080;-79
2023/03/16 08:24:26;;;;;;;4.53;2.83;;;5.20;99.90;;;;;;5137230;27;20126;-78
2023/03/16 08:26:52;;;;;;;6.20;3.20;;;5.20;99.90;;;;;;5102227;27;20039;-81
2023/03/16 08:29:18;;;;;;;5.45;3.10;;;5.30;99.90;;;;;;5137524;27;20505;-78
2023/03/16 08:31:44;;;;;;;5.25;3.20;;;5.30;99.90;;;;;;5119121;27;20031;-78
2023/03/16 08:34:10;;;;;;;4.63;2.85;;;5.40;99.90;;;;;;5137153;27;20043;-81
2023/03/16 08:36:36;;;;;;;4.95;3.47;;;5.40;99.90;;;;;;5136999;27;20100;-82
2023/03/16 08:39:04;;;;;;;6.97;3.47;;;5.50;99.90;;;;;;5136076;27;20043;-77
2023/03/16 08:41:31;;;;;;;5.03;3.42;;;5.50;99.90;;;;;;5118527;27;20051;-78
2023/03/16 08:43:57;;;;;;;7.22;3.35;;;5.60;99.90;;;;;;5136973;27;20480;-78
2023/03/16 08:46:23;;;;;;;5.95;3.25;;;5.60;99.90;;;;;;5118809;27;20038;-78
2023/03/16 08:48:49;;;;;;;5.40;3.10;;;5.60;99.90;;;;;;5136758;27;20060;-78
2023/03/16 08:51:16;;;;;;;4.57;3.42;;;5.60;99.90;;;;;;5118151;27;20448;-78
2023/03/16 08:53:43;;;;;;;7.13;4.20;;;5.60;99.90;;;;;;5118599;27;20050;-79
2023/03/16 08:56:11;;;;;;;7.13;3.70;;;5.60;99.90;;;;;;5137370;27;20074;-86
2023/03/16 08:58:38;;;;;;;4.80;3.13;;;5.60;99.90;;;;;;5102146;27;20035;-88
2023/03/16 09:01:05;;;;;;;6.38;3.80;;;5.60;99.90;;;;;;5120014;27;20047;-86
2023/03/16 09:03:34;;;;;;;6.90;3.85;;;5.60;99.90;;;;;;5137008;27;20058;-84
2023/03/16 09:06:05;;;;;;;5.05;3.15;;;5.60;99.90;;;;;;5136380;27;20054;-83
2023/03/16 09:08:31;;;;;;;5.97;3.88;;;5.60;99.90;;;;;;5101578;27;20059;-83
2023/03/16 09:11:02;;;;;;;9.40;4.30;;;6.00;99.90;;;;;;5118153;27;20140;-82
2023/03/16 09:13:29;;;;;;;7.05;4.05;;;5.70;99.90;;;;;;5136590;27;20042;-85
2023/03/16 09:15:55;;;;;;;9.48;4.25;;;5.70;99.90;;;;;;5117980;27;20070;-81
2023/03/16 09:18:23;;;;;;;7.45;4.43;;;5.70;99.90;;;;;;5101568;27;20047;-85
2023/03/16 09:20:48;;;;;;;8.90;4.18;;;5.70;99.90;;;;;;5101122;27;20035;-81
2023/03/16 09:23:14;;;;;;;5.82;4.00;;;5.60;99.90;;;;;;5117664;27;20378;-85
2023/03/16 09:25:40;;;;;;;6.53;3.85;;;5.60;99.90;;;;;;5117943;27;20079;-80
2023/03/16 09:28:05;;;;;;;9.30;4.25;;;5.60;99.90;;;;;;5101163;27;20548;-81
2023/03/16 09:30:32;;;;;;;7.07;4.03;;;5.60;99.90;;;;;;5117813;27;20043;-80
2023/03/16 09:32:58;;;;;;;6.83;4.47;;;5.60;99.90;;;;;;5101233;27;20077;-79
2023/03/16 09:35:25;;;;;;;8.87;3.97;;;5.60;99.90;;;;;;5117807;27;20043;-82
2023/03/16 09:37:51;;;;;;;7.32;4.10;;;5.60;99.90;;;;;;5117800;27;20082;-80
2023/03/16 09:40:25;;;;;;;8.65;4.22;;;5.70;99.90;;;;;;5117908;27;20386;-80
2023/03/16 09:43:16;;;;;;;8.20;4.30;;;5.70;99.90;;;;;;5117629;27;20043;-81
2023/03/16 09:46:06;;;;;;;6.40;4.05;;;5.70;99.90;;;;;;5117753;27;20043;-77
2023/03/16 09:48:34;;;;;;;7.25;4.55;;;5.80;99.90;;;;;;5135603;27;20088;-77
2023/03/16 09:51:04;;;;;;;8.77;4.13;;;5.80;99.90;;;;;;5135552;27;20132;-77
2023/03/16 09:53:36;;;;;;;10.25;4.60;;;5.90;99.90;;;;;;5135661;27;20089;-77
2023/03/16 09:56:07;;;;;;;6.95;4.45;;;6.00;99.90;;;;;;5135487;27;20066;-77
2023/03/16 09:58:33;;;;;;;8.65;4.13;;;6.00;99.90;;;;;;5135535;27;20047;-77
2023/03/16 10:01:34;;;;;;;8.53;4.37;;;6.00;99.90;;;;;;5135539;27;20039;-76
2023/03/16 10:04:18;;;;;;;6.63;4.47;;;6.00;99.90;;;;;;5135015;27;20548;-75
2023/03/16 10:07:14;;;;;;;7.97;4.70;;;6.00;99.90;;;;;;5135191;27;20042;-74
2023/03/16 10:10:01;;;;;;;9.07;4.60;;;6.00;99.90;;;;;;5135273;27;20466;-75
2023/03/16 10:12:40;;;;;;;8.50;5.10;;;6.00;99.90;;;;;;5135232;27;20451;-76
2023/03/16 10:15:16;;;;;;;7.75;4.65;;;5.90;99.90;;;;;;5135177;27;20083;-77
2023/03/16 10:17:51;;;;;;;6.97;4.28;;;6.00;99.90;;;;;;5134936;27;20431;-77
2023/03/16 10:20:20;;;;;;;6.80;3.83;;;6.00;99.90;;;;;;5117042;27;20058;-77
2023/03/16 10:22:48;;;;;;;9.43;4.40;;;6.00;99.90;;;;;;5135037;27;20076;-77
2023/03/16 10:25:43;;;;;;;7.10;4.35;;;5.90;99.90;;;;;;5134645;27;20047;-77
2023/03/16 10:28:15;;;;;;;7.80;4.40;;;5.90;99.90;;;;;;5134565;27;20073;-77
2023/03/16 10:30:41;;;;;;;8.48;4.53;;;5.90;99.90;;;;;;5116744;27;20107;-77
2023/03/16 10:33:17;;;;;;;7.75;4.72;;;5.90;99.90;;;;;;5134824;27;20554;-79
2023/03/16 10:35:55;;;;;;;7.95;4.18;;;5.90;99.90;;;;;;5116617;27;20135;-76
2023/03/16 10:38:29;;;;;;;9.20;4.57;;;5.90;99.90;;;;;;5134586;27;20129;-76
2023/03/16 10:40:56;;;;;;;9.02;4.10;;;7.00;99.90;;;;;;5134849;27;20043;-77
2023/03/16 10:43:23;;;;;;;6.25;4.20;;;6.00;99.90;;;;;;5134864;27;20040;-77
2023/03/16 10:45:49;;;;;;;8.75;4.15;;;6.00;99.90;;;;;;5134606;27;20078;-78
2023/03/16 10:48:19;;;;;;;6.60;3.90;;;6.00;99.90;;;;;;5134618;27;20079;-77
2023/03/16 10:50:55;;;;;;;6.63;3.55;;;7.00;99.90;;;;;;5134470;27;20086;-77
2023/03/16 10:53:35;;;;;;;6.93;3.78;;;6.00;99.90;;;;;;5134656;27;20047;-77
2023/03/16 10:56:12;;;;;;;6.70;4.15;;;6.20;99.90;;;;;;5134403;27;20475;-80
2023/03/16 10:58:42;;;;;;;6.68;4.55;;;6.10;99.90;;;;;;5134704;27;20074;-78
2023/03/16 11:01:27;;;;;;;10.38;3.97;;;6.10;99.90;;;;;;5134924;27;20043;-81
2023/03/16 11:03:56;;;;;;;8.70;4.20;;;6.20;99.90;;;;;;5134617;27;20122;-79
2023/03/16 11:06:29;;;;;;;6.45;3.88;;;6.70;99.90;;;;;;5134858;27;20095;-78
2023/03/16 11:09:12;;;;;;;7.05;3.88;;;6.20;99.90;;;;;;5134993;28;20489;-79
2023/03/16 11:11:39;;;;;;;5.55;3.80;;;6.30;99.90;;;;;;5134672;28;20031;-81
2023/03/16 11:14:11;;;;;;;5.40;3.80;;;6.30;99.90;;;;;;5116235;28;20110;-80
2023/03/16 11:16:49;;;;;;;6.07;3.42;;;6.30;99.90;;;;;;5099203;28;20283;-81
2023/03/16 11:19:30;;;;;;;6.60;3.72;;;6.40;99.90;;;;;;5144031;28;20039;-81
2023/03/16 11:22:01;;;;;;;6.43;4.07;;;6.90;99.90;;;;;;5116130;28;20051;-76
2023/03/16 11:24:38;;;;;;;7.05;3.88;;;6.50;99.90;;;;;;5133883;28;20051;-76
2023/03/16 11:27:11;;;;;;;7.45;4.13;;;7.30;99.90;;;;;;5116499;28;20051;-86
2023/03/16 11:29:55;;;;;;;8.32;4.07;;;6.50;99.90;;;;;;5099011;28;20422;-79
2023/03/16 11:32:37;;;;;;;6.97;3.67;;;6.50;99.90;;;;;;5116428;28;20493;-78
2023/03/16 11:35:20;;;;;;;7.00;3.97;;;6.90;99.90;;;;;;5134123;28;20040;-78
2023/03/16 11:38:10;;;;;;;5.38;3.65;;;6.50;99.90;;;;;;5134339;28;20050;-80
2023/03/16 11:41:10;;;;;;;4.57;3.72;;;6.60;99.90;;;;;;5133907;28;20487;-80
2023/03/16 11:43:54;;;;;;;6.97;3.10;;;6.60;99.90;;;;;;5134089;28;20058;-77
2023/03/16 11:46:22;;;;;;;8.20;3.17;;;6.70;99.90;;;;;;5134182;28;20043;-77
2023/03/16 11:49:10;;;;;;;6.70;4.00;;;6.70;99.90;;;;;;5133972;28;20129;-78
2023/03/16 11:51:51;;;;;;;7.57;3.60;;;6.80;99.90;;;;;;5117916;28;20462;-77
2023/03/16 11:54:42;;;;;;;6.57;3.85;;;6.90;99.90;;;;;;5134263;28;20444;-77
2023/03/16 11:57:44;;;;;;;5.22;3.60;;;7.20;99.90;;;;;;5133984;28;20057;-76
2023/03/16 12:00:24;;;;;;;8.25;3.53;;;7.10;99.90;;;;;;5115453;28;20406;-78
2023/03/16 12:03:16;;;;;;;7.00;3.50;;;7.20;99.90;;;;;;5134017;28;20058;-78
2023/03/16 12:05:56;;;;;;;4.70;3.47;;;7.20;99.90;;;;;;5133723;28;20410;-81
2023/03/16 12:08:37;;;;;;;5.43;3.38;;;7.20;99.90;;;;;;5115502;28;20138;-78
2023/03/16 12:11:13;;;;;;;7.78;3.10;;;7.30;99.90;;;;;;5133894;28;20057;-77
2023/03/16 12:13:54;;;;;;;6.80;3.63;;;7.80;99.90;;;;;;5133961;27;20051;-79
2023/03/16 12:16:29;;;;;;;7.63;3.47;;;7.40;99.90;;;;;;5137404;27;20074;-79
2023/03/16 12:19:00;;;;;;;5.07;3.70;;;7.50;99.90;;;;;;5119106;27;20395;-79
2023/03/16 12:21:41;;;;;;;6.45;2.90;;;7.60;99.90;;;;;;5119083;27;20464;-79
2023/03/16 12:24:31;;;;;;;6.07;3.47;;;7.70;99.90;;;;;;5137408;27;20051;-77
2023/03/16 12:26:58;;;;;;;5.35;3.53;;;7.80;99.90;;;;;;5137424;27;20045;-77
2023/03/16 12:29:36;;;;;;;5.68;3.05;;;8.00;99.90;;;;;;5137144;27;20398;-77
2023/03/16 12:32:08;;;;;;;8.85;3.55;;;8.20;99.90;;;;;;5137140;27;20383;-75
2023/03/16 12:34:37;;;;;;;7.28;3.70;;;8.30;99.90;;;;;;5137472;27;20047;-80
2023/03/16 12:37:30;;;;;;;7.15;3.45;;;8.50;99.90;;;;;;5136989;27;20055;-78
2023/03/16 12:40:27;;;;;;;5.90;3.42;;;8.70;99.90;;;;;;5136996;27;20126;-76
2023/03/16 12:43:14;;;;;;;5.13;3.03;;;8.70;99.90;;;;;;5136785;27;20470;-79
2023/03/16 12:45:46;;;;;;;6.60;3.20;;;8.60;99.90;;;;;;5136925;27;20394;-79
2023/03/16 12:48:41;;;;;;;6.72;3.10;;;8.70;99.90;;;;;;5136536;27;20057;-79
2023/03/16 12:51:07;;;;;;;5.57;2.95;;;8.70;99.90;;;;;;5131261;27;20047;-79
2023/03/16 12:53:52;;;;;;;7.20;3.47;;;8.80;99.90;;;;;;5136780;27;20398;-79
2023/03/16 12:56:30;;;;;;;4.93;3.20;;;8.90;99.90;;;;;;5136756;27;20086;-79
2023/03/16 12:58:59;;;;;;;5.45;3.58;;;8.90;99.90;;;;;;5136980;27;20046;-76
2023/03/16 13:01:29;;;;;;;6.03;3.35;;;9.30;99.90;;;;;;5136990;27;20043;-78
2023/03/16 13:04:02;;;;;;;7.18;3.90;;;8.80;99.90;;;;;;5136679;27;20039;-79
2023/03/16 13:06:32;;;;;;;8.50;3.42;;;8.80;99.90;;;;;;5136749;27;20076;-79
2023/03/16 13:09:00;;;;;;;6.22;3.28;;;8.80;99.90;;;;;;5136518;27;20462;-79
2023/03/16 13:11:26;;;;;;;4.88;3.42;;;8.90;99.90;;;;;;5136361;27;20691;-78